createdAt,value
2019-05-13T00:01:30.384Z,12.27
2019-05-13T00:04:00.566Z,14.60
2019-05-13T00:06:30.583Z,14.97
2019-05-13T00:09:00.333Z,13.27
2019-05-13T00:11:30.266Z,13.10
2019-05-13T00:14:00.657Z,12.90
2019-05-13T00:16:30.577Z,10.90
2019-05-13T00:19:00.479Z,12.33
2019-05-13T00:21:30.415Z,12.57
2019-05-13T00:24:00.703Z,10.10
2019-05-13T00:26:30.759Z,8.73
2019-05-13T00:29:00.623Z,13.73
2019-05-13T00:31:30.809Z,15.70
2019-05-13T00:34:03.472Z,15.77
2019-05-13T00:36:33.690Z,17.70
2019-05-13T00:39:06.126Z,17.30
2019-05-13T00:41:36.523Z,18.57
2019-05-13T00:44:06.754Z,18.70
2019-05-13T00:46:37.031Z,20.20
2019-05-13T00:49:07.401Z,16.83
2019-05-13T00:51:37.169Z,13.40
2019-05-13T00:54:07.511Z,15.30
2019-05-13T00:56:38.033Z,16.90
2019-05-13T00:59:07.793Z,21.33
2019-05-13T01:01:39.003Z,20.83
2019-05-13T01:04:08.806Z,16.07
2019-05-13T01:06:38.609Z,15.27
2019-05-13T01:09:09.094Z,25.30
2019-05-13T01:11:39.361Z,15.93
2019-05-13T01:14:09.118Z,16.80
2019-05-13T01:16:39.116Z,16.43
2019-05-13T01:19:09.290Z,16.77
2019-05-13T01:21:39.423Z,17.90
2019-05-13T01:24:09.138Z,16.10
2019-05-13T01:26:38.951Z,18.23
2019-05-13T01:29:08.822Z,16.73
2019-05-13T01:31:38.742Z,14.57
2019-05-13T01:34:08.800Z,17.13
2019-05-13T01:36:38.582Z,16.20
2019-05-13T01:39:08.689Z,14.87
2019-05-13T01:41:38.490Z,11.53
2019-05-13T01:44:08.229Z,17.23
2019-05-13T01:46:43.685Z,14.27
2019-05-13T01:49:13.787Z,14.40
2019-05-13T01:51:44.214Z,11.07
2019-05-13T01:54:14.315Z,11.40
2019-05-13T01:56:44.305Z,17.30
2019-05-13T01:59:15.186Z,18.10
2019-05-13T02:01:45.055Z,15.97
2019-05-13T02:04:15.296Z,18.60
2019-05-13T02:06:45.386Z,15.97
2019-05-13T02:09:15.494Z,17.40
2019-05-13T02:11:46.697Z,21.87
2019-05-13T02:14:16.858Z,16.07
2019-05-13T02:16:47.071Z,22.63
2019-05-13T02:19:17.528Z,19.37
2019-05-13T02:21:47.614Z,22.07
2019-05-13T02:24:17.429Z,21.33
2019-05-13T02:26:47.360Z,16.33
2019-05-13T02:29:17.322Z,22.80
2019-05-13T02:31:52.055Z,17.03
2019-05-13T02:34:22.976Z,16.17
2019-05-13T02:36:52.753Z,19.23
2019-05-13T02:39:22.807Z,16.43
2019-05-13T02:41:53.041Z,17.10
2019-05-13T02:44:23.137Z,22.83
2019-05-13T02:46:52.967Z,13.97
2019-05-13T02:49:23.290Z,23.00
2019-05-13T02:51:54.691Z,17.27
2019-05-13T02:54:25.418Z,18.37
2019-05-13T02:56:55.648Z,13.00
2019-05-13T02:59:25.375Z,17.30
2019-05-13T03:01:55.503Z,16.87
2019-05-13T03:04:25.565Z,14.67
2019-05-13T03:06:55.803Z,13.40
2019-05-13T03:09:25.570Z,14.83
2019-05-13T03:11:55.401Z,17.67
2019-05-13T03:14:25.566Z,15.23
2019-05-13T03:17:14.263Z,19.27
2019-05-13T03:19:44.079Z,15.93
2019-05-13T03:22:13.895Z,16.33
2019-05-13T03:24:44.014Z,16.17
2019-05-13T03:27:13.818Z,17.53
2019-05-13T03:29:43.878Z,13.97
2019-05-13T03:32:16.136Z,14.17
2019-05-13T03:34:46.429Z,17.40
2019-05-13T03:37:16.936Z,12.77
2019-05-13T03:39:47.901Z,14.80
2019-05-13T03:42:18.061Z,15.20
2019-05-13T03:44:52.476Z,16.33
2019-05-13T03:47:24.987Z,14.63
2019-05-13T03:50:03.022Z,19.77
2019-05-13T03:52:33.664Z,15.57
2019-05-13T03:55:03.649Z,15.87
2019-05-13T03:57:33.957Z,17.03
2019-05-13T04:00:04.372Z,18.47
2019-05-13T04:02:34.314Z,20.73
2019-05-13T04:05:04.600Z,18.53
2019-05-13T04:07:34.525Z,16.57
2019-05-13T04:10:05.243Z,17.77
2019-05-13T04:12:35.391Z,22.07
2019-05-13T04:15:05.376Z,16.67
2019-05-13T04:17:35.375Z,22.90
2019-05-13T04:20:06.319Z,18.73
2019-05-13T04:22:36.466Z,16.90
2019-05-13T04:25:06.545Z,17.33
2019-05-13T04:27:36.311Z,20.60
2019-05-13T04:30:07.552Z,19.50
2019-05-13T04:32:38.288Z,18.27
2019-05-13T04:35:08.289Z,18.10
2019-05-13T04:37:38.118Z,16.90
2019-05-13T04:40:08.873Z,18.50
2019-05-13T04:42:38.715Z,21.03
2019-05-13T04:45:12.973Z,19.77
2019-05-13T04:47:43.158Z,16.77
2019-05-13T04:50:13.719Z,22.07
2019-05-13T04:52:43.606Z,20.67
2019-05-13T04:55:13.622Z,28.30
2019-05-13T04:57:44.479Z,18.90
2019-05-13T05:00:14.451Z,19.07
2019-05-13T05:02:58.246Z,17.53
2019-05-13T05:05:52.721Z,16.53
2019-05-13T05:09:05.995Z,24.37
2019-05-13T05:12:23.131Z,20.10
2019-05-13T05:15:23.400Z,17.70
2019-05-13T05:18:36.754Z,14.00
2019-05-13T05:21:12.815Z,19.60
2019-05-13T05:24:11.391Z,17.80
2019-05-13T05:27:13.927Z,23.27
2019-05-13T05:30:08.511Z,16.07
2019-05-13T05:33:11.352Z,17.07
2019-05-13T05:36:12.845Z,16.73
2019-05-13T05:39:08.003Z,14.57
2019-05-13T05:41:38.920Z,13.27
2019-05-13T05:44:12.547Z,9.40
2019-05-13T05:46:43.128Z,10.00
2019-05-13T05:49:13.759Z,11.03
2019-05-13T05:51:46.437Z,10.90
2019-05-13T05:54:21.644Z,8.70
2019-05-13T05:56:54.206Z,9.50
2019-05-13T05:59:26.548Z,12.80
2019-05-13T06:01:57.469Z,9.57
2019-05-13T06:04:28.145Z,10.13
2019-05-13T06:06:58.670Z,9.13
2019-05-13T06:09:32.239Z,11.97
2019-05-13T06:12:03.591Z,9.40
2019-05-13T06:14:33.672Z,7.23
2019-05-13T06:17:03.553Z,6.73
2019-05-13T06:19:33.613Z,5.53
2019-05-13T06:22:03.789Z,6.43
2019-05-13T06:24:33.752Z,9.13
2019-05-13T06:27:04.027Z,11.33
2019-05-13T06:29:34.393Z,6.63
2019-05-13T06:32:18.063Z,4.37
2019-05-13T06:34:36.751Z,7.57
2019-05-13T06:37:06.602Z,4.70
2019-05-13T06:39:36.910Z,4.10
2019-05-13T06:42:06.764Z,4.40
2019-05-13T06:44:37.212Z,4.33
2019-05-13T06:47:07.398Z,4.57
2019-05-13T06:49:37.182Z,4.43
2019-05-13T06:52:06.968Z,4.30
2019-05-13T06:54:37.761Z,5.63
2019-05-13T06:57:07.960Z,8.90
2019-05-13T06:59:38.178Z,3.97
2019-05-13T07:02:08.109Z,5.90
2019-05-13T07:04:37.906Z,7.53
2019-05-13T07:07:13.249Z,4.63
2019-05-13T07:09:42.452Z,7.00
2019-05-13T07:12:11.486Z,4.67
2019-05-13T07:14:41.446Z,5.23
2019-05-13T07:17:12.362Z,5.13
2019-05-13T07:19:42.427Z,5.43
2019-05-13T07:22:12.758Z,6.40
2019-05-13T07:24:42.982Z,6.40
2019-05-13T07:27:12.766Z,9.60
2019-05-13T07:29:42.883Z,7.10
2019-05-13T07:32:12.639Z,12.53
2019-05-13T07:34:43.789Z,7.47
2019-05-13T07:37:14.334Z,3.80
2019-05-13T07:39:44.651Z,9.43
2019-05-13T07:42:14.814Z,4.70
2019-05-13T07:44:45.347Z,4.37
2019-05-13T07:47:16.022Z,5.00
2019-05-13T07:49:45.946Z,8.97
2019-05-13T07:52:16.108Z,5.03
2019-05-13T07:54:45.844Z,6.77
2019-05-13T07:57:15.650Z,5.20
2019-05-13T07:59:45.578Z,4.07
2019-05-13T08:02:15.389Z,7.43
2019-05-13T08:04:48.845Z,5.27
2019-05-13T08:07:16.606Z,6.17
2019-05-13T08:09:46.381Z,4.87
2019-05-13T08:12:16.271Z,7.93
2019-05-13T08:14:46.112Z,3.77
2019-05-13T08:17:15.937Z,3.47
2019-05-13T08:19:46.078Z,9.53
2019-05-13T08:22:16.335Z,6.73
2019-05-13T08:24:46.074Z,8.77
2019-05-13T08:27:20.935Z,8.90
2019-05-13T08:29:47.358Z,12.50
2019-05-13T08:32:17.183Z,11.00
2019-05-13T08:34:52.478Z,4.63
2019-05-13T08:37:21.530Z,5.83
2019-05-13T08:39:52.137Z,3.70
2019-05-13T08:42:23.502Z,7.00
2019-05-13T08:44:53.542Z,9.07
2019-05-13T08:47:23.646Z,7.00
2019-05-13T08:49:53.769Z,10.03
2019-05-13T08:52:23.547Z,5.00
2019-05-13T08:54:53.339Z,6.20
2019-05-13T08:57:23.247Z,4.17
2019-05-13T08:59:54.004Z,5.23
2019-05-13T09:02:23.879Z,8.83
2019-05-13T09:04:53.982Z,4.10
2019-05-13T09:07:24.520Z,8.70
2019-05-13T09:09:54.597Z,31.80
2019-05-13T09:12:31.960Z,6.53
2019-05-13T09:14:56.553Z,4.07
2019-05-13T09:17:26.629Z,4.80
2019-05-13T09:19:57.231Z,49.07
2019-05-13T09:22:27.107Z,4.40
2019-05-13T09:24:56.929Z,4.70
2019-05-13T09:27:26.687Z,6.37
2019-05-13T09:29:56.479Z,8.10
2019-05-13T09:32:26.960Z,11.30
2019-05-13T09:34:56.750Z,4.73
2019-05-13T09:37:26.493Z,3.60
2019-05-13T09:39:56.321Z,8.47
2019-05-13T09:42:26.130Z,2.57
2019-05-13T09:44:55.916Z,3.53
2019-05-13T09:47:28.310Z,4.67
2019-05-13T09:49:57.479Z,5.53
2019-05-13T09:52:27.227Z,11.67
2019-05-13T09:54:57.356Z,5.80
2019-05-13T09:57:27.526Z,3.10
2019-05-13T09:59:57.747Z,5.77
2019-05-13T10:02:27.538Z,6.03
2019-05-13T10:04:57.658Z,4.67
2019-05-13T10:07:27.851Z,4.60
2019-05-13T10:09:58.055Z,5.23
2019-05-13T10:12:27.942Z,2.87
2019-05-13T10:14:57.874Z,3.43
2019-05-13T10:17:27.639Z,4.70
2019-05-13T10:19:57.442Z,1.67
2019-05-13T10:22:28.341Z,3.53
2019-05-13T10:24:58.247Z,2.10
2019-05-13T10:27:28.206Z,4.10
2019-05-13T10:29:58.845Z,2.30
2019-05-13T10:32:32.234Z,3.93
2019-05-13T10:35:03.198Z,3.83
2019-05-13T10:37:34.816Z,2.37
2019-05-13T10:40:05.866Z,4.67
2019-05-13T10:42:35.842Z,2.80
2019-05-13T10:45:07.383Z,4.63
2019-05-13T10:47:37.846Z,2.27
2019-05-13T10:50:07.947Z,5.63
2019-05-13T10:52:37.698Z,2.73
2019-05-13T10:55:07.757Z,2.77
2019-05-13T10:57:37.961Z,4.23
2019-05-13T11:00:11.947Z,9.67
2019-05-13T11:02:42.370Z,5.63
2019-05-13T11:05:12.901Z,3.10
2019-05-13T11:07:42.652Z,9.07
2019-05-13T11:10:13.522Z,7.33
2019-05-13T11:12:43.770Z,9.77
2019-05-13T11:15:13.874Z,2.10
2019-05-13T11:17:43.630Z,7.63
2019-05-13T11:20:13.754Z,3.77
2019-05-13T11:22:43.839Z,2.80
2019-05-13T11:25:14.478Z,1.93
2019-05-13T11:27:44.255Z,4.13
2019-05-13T11:30:14.278Z,3.63
2019-05-13T11:32:44.782Z,8.53
2019-05-13T11:35:15.188Z,6.80
2019-05-13T11:37:44.969Z,3.47
2019-05-13T11:40:15.473Z,14.43
2019-05-13T11:42:45.809Z,3.27
2019-05-13T11:45:16.278Z,4.83
2019-05-13T11:47:46.785Z,3.13
2019-05-13T11:50:17.043Z,2.40
2019-05-13T11:52:47.294Z,15.67
2019-05-13T11:55:17.358Z,7.60
2019-05-13T11:57:47.179Z,2.30
2019-05-13T12:00:23.082Z,4.53
2019-05-13T12:02:54.696Z,2.23
2019-05-13T12:05:24.346Z,1.73
2019-05-13T12:07:54.262Z,4.23
2019-05-13T12:10:24.021Z,4.30
2019-05-13T12:12:54.493Z,5.70
2019-05-13T12:15:33.498Z,7.30
2019-05-13T12:17:56.158Z,3.53
2019-05-13T12:20:26.095Z,6.73
2019-05-13T12:22:56.225Z,5.23
2019-05-13T12:25:26.409Z,2.20
2019-05-13T12:27:56.199Z,5.27
2019-05-13T12:30:26.282Z,5.53
2019-05-13T12:32:56.535Z,4.97
2019-05-13T12:35:26.901Z,4.57
2019-05-13T12:37:56.728Z,3.70
2019-05-13T12:40:26.620Z,4.77
2019-05-13T12:42:56.889Z,4.60
2019-05-13T12:45:26.866Z,2.27
2019-05-13T12:47:56.682Z,2.37
2019-05-13T12:50:27.413Z,2.03
2019-05-13T12:52:57.222Z,3.83
2019-05-13T12:55:27.427Z,1.60
2019-05-13T12:57:57.561Z,4.77
2019-05-13T13:00:27.544Z,3.67
2019-05-13T13:02:57.505Z,1.90
2019-05-13T13:05:33.102Z,3.90
2019-05-13T13:08:18.384Z,4.63
2019-05-13T13:10:34.444Z,4.00
2019-05-13T13:13:02.518Z,3.57
2019-05-13T13:15:38.303Z,4.83
2019-05-13T13:18:03.841Z,2.53
2019-05-13T13:20:41.046Z,2.17
2019-05-13T13:23:05.062Z,1.93
2019-05-13T13:25:34.928Z,2.73
2019-05-13T13:30:36.177Z,1.30
2019-05-13T13:33:06.523Z,2.20
2019-05-13T13:35:36.346Z,1.30
2019-05-13T13:38:06.199Z,4.60
2019-05-13T13:40:36.027Z,3.20
2019-05-13T13:43:06.148Z,1.33
2019-05-13T13:46:05.865Z,3.77
2019-05-13T13:48:07.384Z,3.03
2019-05-13T13:50:37.362Z,1.93
2019-05-13T13:53:13.511Z,1.70
2019-05-13T13:55:44.230Z,5.13
2019-05-13T13:58:14.139Z,3.10
2019-05-13T14:00:56.453Z,2.50
2019-05-13T14:03:15.001Z,1.90
2019-05-13T14:05:45.255Z,2.00
2019-05-13T14:06:58.377Z,1.97
2019-05-13T14:08:15.489Z,3.53
2019-05-13T14:10:45.271Z,4.97
2019-05-13T14:13:15.358Z,11.30
2019-05-13T14:15:45.591Z,3.77
2019-05-13T14:18:15.667Z,1.57
2019-05-13T14:20:45.470Z,3.47
2019-05-13T14:23:15.238Z,1.90
2019-05-13T14:25:45.076Z,2.20
2019-05-13T14:28:17.568Z,7.37
2019-05-13T14:30:47.435Z,2.23
2019-05-13T14:33:18.006Z,2.30
2019-05-13T14:35:47.818Z,6.33
2019-05-13T14:38:17.606Z,4.63
2019-05-13T14:40:47.905Z,1.93
2019-05-13T14:43:17.847Z,15.73
2019-05-13T14:45:51.865Z,2.40
2019-05-13T14:48:22.252Z,5.77
2019-05-13T14:50:52.297Z,3.80
2019-05-13T14:53:22.606Z,3.33
2019-05-13T14:55:52.813Z,1.47
2019-05-13T14:58:22.943Z,1.50
2019-05-13T15:01:10.328Z,2.70
2019-05-13T15:03:24.590Z,6.60
2019-05-13T15:05:54.353Z,4.33
2019-05-13T15:08:25.931Z,3.80
2019-05-13T15:10:55.839Z,1.57
2019-05-13T15:13:25.935Z,1.50
2019-05-13T15:15:55.697Z,2.80
2019-05-13T15:18:25.935Z,1.63
2019-05-13T15:20:55.729Z,3.70
2019-05-13T15:23:25.849Z,2.30
2019-05-13T15:25:56.048Z,4.40
2019-05-13T15:28:25.853Z,4.33
2019-05-13T15:30:55.634Z,2.60
2019-05-13T15:33:25.407Z,3.10
2019-05-13T15:35:55.416Z,4.20
2019-05-13T15:38:25.578Z,1.70
2019-05-13T15:40:56.173Z,1.43
2019-05-13T15:43:26.022Z,4.80
2019-05-13T15:45:55.914Z,3.97
2019-05-13T15:48:25.728Z,2.20
2019-05-13T15:50:55.914Z,2.20
2019-05-13T15:53:25.758Z,2.70
2019-05-13T15:55:55.518Z,3.83
2019-05-13T15:58:38.440Z,1.80
2019-05-13T16:00:57.490Z,1.40
2019-05-13T16:03:27.518Z,3.90
2019-05-13T16:05:57.328Z,1.40
2019-05-13T16:08:27.488Z,2.50
2019-05-13T16:10:58.027Z,1.13
2019-05-13T16:13:28.005Z,1.57
2019-05-13T16:15:58.112Z,2.30
2019-05-13T16:18:31.440Z,2.17
2019-05-13T16:21:01.778Z,1.20
2019-05-13T16:23:32.629Z,3.03
2019-05-13T16:26:02.508Z,2.70
2019-05-13T16:28:33.015Z,1.70
2019-05-13T16:31:03.200Z,6.17
2019-05-13T16:33:33.066Z,5.63
2019-05-13T16:36:03.172Z,4.07
2019-05-13T16:38:33.197Z,2.60
2019-05-13T16:41:03.473Z,1.30
2019-05-13T16:43:34.067Z,5.07
2019-05-13T16:46:07.116Z,2.57
2019-05-13T16:48:36.294Z,2.53
2019-05-13T16:51:06.170Z,3.80
2019-05-13T16:53:37.476Z,5.37
2019-05-13T16:56:07.244Z,3.93
2019-05-13T16:58:37.241Z,2.33
2019-05-13T17:01:07.423Z,4.47
2019-05-13T17:03:37.653Z,1.90
2019-05-13T17:06:07.399Z,2.67
2019-05-13T17:08:37.182Z,11.10
2019-05-13T17:11:08.508Z,4.17
2019-05-13T17:13:38.328Z,2.40
2019-05-13T17:16:08.519Z,3.03
2019-05-13T17:18:38.835Z,3.53
2019-05-13T17:21:08.850Z,1.97
2019-05-13T17:23:41.838Z,2.77
2019-05-13T17:26:12.258Z,3.70
2019-05-13T17:28:42.479Z,2.17
2019-05-13T17:31:12.414Z,1.97
2019-05-13T17:33:42.298Z,1.23
2019-05-13T17:36:12.515Z,2.97
2019-05-13T17:38:43.198Z,3.40
2019-05-13T17:41:13.423Z,1.17
2019-05-13T17:43:43.404Z,1.57
2019-05-13T17:46:13.526Z,4.30
2019-05-13T17:48:43.738Z,2.00
2019-05-13T17:51:16.473Z,3.20
2019-05-13T17:53:46.139Z,1.57
2019-05-13T17:56:16.038Z,3.93
2019-05-13T17:58:45.858Z,1.50
2019-05-13T18:01:15.621Z,4.50
2019-05-13T18:03:46.216Z,1.63
2019-05-13T18:06:16.446Z,2.00
2019-05-13T18:08:46.257Z,2.30
2019-05-13T18:11:16.673Z,1.37
2019-05-13T18:13:46.582Z,4.00
2019-05-13T18:16:16.920Z,4.87
2019-05-13T18:18:47.820Z,2.67
2019-05-13T18:21:17.759Z,2.50
2019-05-13T18:23:47.940Z,3.73
2019-05-13T18:26:17.971Z,3.50
2019-05-13T18:28:47.712Z,3.80
2019-05-13T18:31:18.107Z,3.30
2019-05-13T18:33:51.693Z,2.53
2019-05-13T18:36:23.415Z,1.83
2019-05-13T18:38:53.876Z,2.83
2019-05-13T18:41:25.000Z,4.60
2019-05-13T18:43:55.100Z,5.50
2019-05-13T18:46:24.995Z,2.40
2019-05-13T18:48:58.969Z,1.80
2019-05-13T18:51:28.065Z,2.10
2019-05-13T18:53:58.395Z,1.43
2019-05-13T18:56:29.040Z,2.13
2019-05-13T18:59:01.515Z,2.57
2019-05-13T19:01:32.080Z,1.03
2019-05-13T19:04:02.545Z,2.03
2019-05-13T19:06:32.689Z,1.30
2019-05-13T19:09:02.590Z,2.00
2019-05-13T19:11:32.649Z,4.03
2019-05-13T19:14:02.750Z,2.20
2019-05-13T19:16:33.638Z,6.43
2019-05-13T19:19:12.191Z,2.90
2019-05-13T19:21:35.745Z,1.90
2019-05-13T19:24:05.924Z,3.07
2019-05-13T19:26:37.329Z,4.73
2019-05-13T19:29:07.252Z,6.10
2019-05-13T19:31:37.103Z,3.00
2019-05-13T19:34:07.805Z,1.30
2019-05-13T19:36:37.811Z,2.13
2019-05-13T19:39:08.682Z,3.00
2019-05-13T19:41:39.020Z,3.63
2019-05-13T19:44:09.057Z,4.43
2019-05-13T19:46:38.967Z,2.20
2019-05-13T19:49:09.394Z,3.50
2019-05-13T19:51:41.630Z,4.87
2019-05-13T19:54:11.959Z,4.33
2019-05-13T19:56:42.627Z,8.00
2019-05-13T19:59:12.647Z,2.50
2019-05-13T20:01:43.039Z,2.57
2019-05-13T20:04:13.535Z,1.50
2019-05-13T20:06:44.514Z,3.97
2019-05-13T20:09:14.681Z,1.57
2019-05-13T20:11:46.005Z,4.63
2019-05-13T20:14:16.681Z,1.97
2019-05-13T20:16:47.301Z,3.83
2019-05-13T20:19:17.078Z,1.73
2019-05-13T20:21:47.337Z,2.50
2019-05-13T20:24:17.108Z,1.83
2019-05-13T20:26:47.338Z,1.53
2019-05-13T20:29:17.443Z,2.03
2019-05-13T20:31:47.234Z,3.10
2019-05-13T20:34:17.337Z,3.43
2019-05-13T20:36:47.454Z,2.87
2019-05-13T20:39:17.210Z,5.10
2019-05-13T20:41:47.435Z,3.43
2019-05-13T20:44:17.189Z,6.53
2019-05-13T20:46:51.870Z,3.17
2019-05-13T20:49:22.244Z,2.60
2019-05-13T20:51:59.532Z,3.60
2019-05-13T20:54:31.369Z,3.23
2019-05-13T20:57:02.296Z,2.23
2019-05-13T20:59:33.415Z,7.80
2019-05-13T21:02:04.640Z,4.97
2019-05-13T21:04:37.057Z,3.43
2019-05-13T21:07:07.366Z,2.10
2019-05-13T21:09:37.901Z,2.87
2019-05-13T21:12:08.153Z,3.33
2019-05-13T21:14:41.219Z,5.77
2019-05-13T21:17:12.255Z,5.57
2019-05-13T21:19:45.798Z,2.90
2019-05-13T21:22:16.626Z,2.53
2019-05-13T21:24:48.375Z,5.63
2019-05-13T21:27:18.799Z,6.47
2019-05-13T21:29:51.817Z,6.97
2019-05-13T21:32:21.990Z,4.20
2019-05-13T21:34:53.644Z,3.87
2019-05-13T21:37:23.611Z,6.60
2019-05-13T21:39:53.973Z,6.10
2019-05-13T21:42:24.716Z,4.43
2019-05-13T21:44:55.554Z,3.50
2019-05-13T21:47:26.969Z,7.00
2019-05-13T21:49:57.234Z,4.10
2019-05-13T21:52:32.360Z,4.27
2019-05-13T21:55:06.792Z,4.37
2019-05-13T21:57:38.599Z,3.60
2019-05-13T22:00:12.991Z,2.43
2019-05-13T22:02:44.026Z,3.57
2019-05-13T22:05:14.594Z,2.63
2019-05-13T22:07:45.106Z,2.50
2019-05-13T22:10:16.585Z,2.40
2019-05-13T22:12:46.778Z,5.03
2019-05-13T22:15:18.201Z,4.60
2019-05-13T22:17:48.316Z,3.80
2019-05-13T22:20:21.324Z,4.00
2019-05-13T22:22:52.591Z,3.77
2019-05-13T22:25:23.277Z,3.13
2019-05-13T22:27:53.942Z,4.30
2019-05-13T22:30:24.750Z,4.90
2019-05-13T22:32:56.977Z,11.60
2019-05-13T22:35:26.814Z,5.27
2019-05-13T22:37:56.892Z,4.33
2019-05-13T22:40:26.731Z,2.80
2019-05-13T22:42:57.066Z,2.67
2019-05-13T22:45:27.082Z,3.03
2019-05-13T22:47:57.256Z,3.53
2019-05-13T22:50:27.558Z,1.90
2019-05-13T22:52:57.361Z,3.60
2019-05-13T22:55:27.607Z,1.93
2019-05-13T22:57:57.342Z,4.30
2019-05-13T23:00:27.550Z,4.07
2019-05-13T23:02:57.378Z,7.13
2019-05-13T23:05:28.447Z,4.17
2019-05-13T23:07:58.883Z,4.63
2019-05-13T23:10:28.821Z,4.30
2019-05-13T23:12:58.621Z,3.07
2019-05-13T23:15:28.772Z,3.80
2019-05-13T23:17:58.591Z,3.03
2019-05-13T23:20:28.323Z,1.90
2019-05-13T23:22:58.125Z,1.77
2019-05-13T23:25:28.330Z,4.53
2019-05-13T23:27:58.489Z,2.70
2019-05-13T23:30:31.254Z,3.80
2019-05-13T23:33:02.196Z,3.13
2019-05-13T23:35:32.746Z,3.47
2019-05-13T23:38:02.633Z,3.60
2019-05-13T23:40:32.582Z,3.50
2019-05-13T23:43:02.334Z,3.17
2019-05-13T23:45:32.550Z,2.53
2019-05-13T23:48:02.626Z,3.97
2019-05-13T23:50:32.445Z,3.77
2019-05-13T23:53:02.254Z,2.30
2019-05-13T23:55:32.914Z,1.57
2019-05-13T23:58:03.395Z,5.10
